createdAt,value
2019-04-25T00:01:48.909Z,1.60
2019-04-25T00:04:17.455Z,1.60
2019-04-25T00:06:45.859Z,1.43
2019-04-25T00:09:16.287Z,1.57
2019-04-25T00:11:46.541Z,1.67
2019-04-25T00:14:14.707Z,1.77
2019-04-25T00:16:45.191Z,1.70
2019-04-25T00:19:13.831Z,2.27
2019-04-25T00:21:55.494Z,2.30
2019-04-25T00:24:47.681Z,2.20
2019-04-25T00:27:16.014Z,1.93
2019-04-25T00:29:45.585Z,1.87
2019-04-25T00:32:14.307Z,1.70
2019-04-25T00:34:43.578Z,1.90
2019-04-25T00:37:14.005Z,1.83
2019-04-25T00:39:44.763Z,1.93
2019-04-25T00:42:12.514Z,1.63
2019-04-25T00:44:44.558Z,1.90
2019-04-25T00:47:11.950Z,2.27
2019-04-25T00:49:42.130Z,1.50
2019-04-25T00:52:11.617Z,1.93
2019-04-25T00:54:41.358Z,1.43
2019-04-25T00:57:11.995Z,1.80
2019-04-25T01:00:05.721Z,1.77
2019-04-25T01:02:38.443Z,1.70
2019-04-25T01:05:06.775Z,1.80
2019-04-25T01:07:35.169Z,1.97
2019-04-25T01:10:05.538Z,1.97
2019-04-25T01:12:33.855Z,2.10
2019-04-25T01:15:02.733Z,1.73
2019-04-25T01:17:31.457Z,2.33
2019-04-25T01:20:00.038Z,1.70
2019-04-25T01:22:28.352Z,1.97
2019-04-25T01:24:56.693Z,1.90
2019-04-25T01:27:25.002Z,2.13
2019-04-25T01:29:54.457Z,2.27
2019-04-25T01:32:34.518Z,2.30
2019-04-25T01:35:20.904Z,1.77
2019-04-25T01:38:03.702Z,2.40
2019-04-25T01:40:49.522Z,2.30
2019-04-25T01:43:26.921Z,2.10
2019-04-25T01:45:56.036Z,1.97
2019-04-25T01:48:24.405Z,2.47
2019-04-25T01:50:54.540Z,1.87
2019-04-25T01:53:24.178Z,2.03
2019-04-25T01:56:00.569Z,2.20
2019-04-25T01:58:23.618Z,1.77
2019-04-25T02:00:54.690Z,1.37
2019-04-25T02:03:25.381Z,1.70
2019-04-25T02:05:53.380Z,2.07
2019-04-25T02:08:23.907Z,1.93
2019-04-25T02:11:01.237Z,2.00
2019-04-25T02:13:29.645Z,2.23
2019-04-25T02:15:58.029Z,2.13
2019-04-25T02:18:26.410Z,2.07
2019-04-25T02:20:57.898Z,2.00
2019-04-25T02:23:24.781Z,1.90
2019-04-25T02:26:06.080Z,2.40
2019-04-25T02:28:24.045Z,1.70
2019-04-25T02:30:54.739Z,2.67
2019-04-25T02:33:24.254Z,1.93
2019-04-25T02:35:54.312Z,1.50
2019-04-25T02:38:24.324Z,2.13
2019-04-25T02:40:56.286Z,1.90
2019-04-25T02:43:23.905Z,2.10
2019-04-25T02:46:10.229Z,3.10
2019-04-25T02:48:59.605Z,2.60
2019-04-25T02:51:37.529Z,2.23
2019-04-25T02:54:07.953Z,2.53
2019-04-25T02:56:38.955Z,2.30
2019-04-25T02:59:08.807Z,2.37
2019-04-25T03:01:36.014Z,2.30
2019-04-25T03:04:07.440Z,3.10
2019-04-25T03:06:34.987Z,2.10
2019-04-25T03:09:06.465Z,2.33
2019-04-25T03:11:34.842Z,2.57
2019-04-25T03:14:06.624Z,2.57
2019-04-25T03:16:34.753Z,2.73
2019-04-25T03:19:18.364Z,2.73
2019-04-25T03:21:47.446Z,2.20
2019-04-25T03:24:16.809Z,2.43
2019-04-25T03:26:45.474Z,2.60
2019-04-25T03:29:13.826Z,2.67
2019-04-25T03:31:44.709Z,2.60
2019-04-25T03:34:19.112Z,2.50
2019-04-25T03:36:43.751Z,2.50
2019-04-25T03:39:14.453Z,2.87
2019-04-25T03:41:43.884Z,2.77
2019-04-25T03:44:13.879Z,2.53
2019-04-25T03:46:43.781Z,2.60
2019-04-25T03:49:13.535Z,2.73
2019-04-25T03:51:43.868Z,3.27
2019-04-25T03:54:14.110Z,2.97
2019-04-25T03:56:53.200Z,2.70
2019-04-25T03:59:14.648Z,2.53
2019-04-25T04:01:43.926Z,2.90
2019-04-25T04:04:13.747Z,2.40
2019-04-25T04:06:43.984Z,3.30
2019-04-25T04:09:14.244Z,3.13
2019-04-25T04:11:43.527Z,3.03
2019-04-25T04:14:12.881Z,2.67
2019-04-25T04:17:01.236Z,2.87
2019-04-25T04:19:30.524Z,3.27
2019-04-25T04:22:20.950Z,3.17
2019-04-25T04:24:53.795Z,2.97
2019-04-25T04:27:23.886Z,2.93
2019-04-25T04:29:54.133Z,3.43
2019-04-25T04:32:24.121Z,2.90
2019-04-25T04:34:53.699Z,3.20
2019-04-25T04:37:23.655Z,3.37
2019-04-25T04:39:53.671Z,3.70
2019-04-25T04:42:23.714Z,4.00
2019-04-25T04:44:53.492Z,3.30
2019-04-25T04:47:23.529Z,3.90
2019-04-25T04:49:53.821Z,3.30
2019-04-25T04:52:24.067Z,4.10
2019-04-25T04:55:03.734Z,2.90
2019-04-25T04:57:31.934Z,3.20
2019-04-25T04:59:53.562Z,3.13
2019-04-25T05:02:33.579Z,3.73
2019-04-25T05:05:36.509Z,4.23
2019-04-25T05:08:11.150Z,3.40
2019-04-25T05:10:39.449Z,3.73
2019-04-25T05:13:07.770Z,3.47
2019-04-25T05:15:36.136Z,4.57
2019-04-25T05:18:04.457Z,4.07
2019-04-25T05:20:35.407Z,5.10
2019-04-25T05:23:03.227Z,3.77
2019-04-25T05:25:31.646Z,4.40
2019-04-25T05:28:03.068Z,3.53
2019-04-25T05:30:53.530Z,3.93
2019-04-25T05:33:22.704Z,4.20
2019-04-25T05:35:53.755Z,4.07
2019-04-25T05:38:23.987Z,4.30
2019-04-25T05:40:59.426Z,4.00
2019-04-25T05:43:28.392Z,4.60
2019-04-25T05:45:57.621Z,4.77
2019-04-25T05:48:26.359Z,4.50
2019-04-25T05:50:54.869Z,3.90
2019-04-25T05:53:24.170Z,3.97
2019-04-25T05:55:54.093Z,3.90
2019-04-25T05:58:24.524Z,4.87
2019-04-25T06:00:54.233Z,4.80
2019-04-25T06:03:24.808Z,4.37
2019-04-25T06:05:53.377Z,3.43
2019-04-25T06:08:25.449Z,3.87
2019-04-25T06:11:23.900Z,4.80
2019-04-25T06:14:00.271Z,4.73
2019-04-25T06:16:33.206Z,4.67
2019-04-25T06:19:14.197Z,3.43
2019-04-25T06:21:38.393Z,3.90
2019-04-25T06:24:26.049Z,4.60
2019-04-25T06:27:13.951Z,4.90
2019-04-25T06:29:43.179Z,4.67
2019-04-25T06:32:11.694Z,4.40
2019-04-25T06:34:40.039Z,4.83
2019-04-25T06:37:08.427Z,4.33
2019-04-25T06:39:36.753Z,4.57
2019-04-25T06:42:05.120Z,4.70
2019-04-25T06:44:38.415Z,4.47
2019-04-25T06:47:29.528Z,4.53
2019-04-25T06:49:57.986Z,3.83
2019-04-25T06:52:30.670Z,4.07
2019-04-25T06:54:56.366Z,3.60
2019-04-25T06:57:26.987Z,2.97
2019-04-25T06:59:54.814Z,3.37
2019-04-25T07:02:25.365Z,3.97
2019-04-25T07:04:54.032Z,4.47
2019-04-25T07:07:24.542Z,3.70
2019-04-25T07:09:53.479Z,4.00
2019-04-25T07:12:26.266Z,3.87
2019-04-25T07:14:53.809Z,4.03
2019-04-25T07:17:24.088Z,3.23
2019-04-25T07:19:54.013Z,2.93
2019-04-25T07:22:23.923Z,2.97
2019-04-25T07:24:53.748Z,3.13
2019-04-25T07:27:40.386Z,3.50
2019-04-25T07:30:38.064Z,4.40
2019-04-25T07:33:06.782Z,3.20
2019-04-25T07:35:35.756Z,3.70
2019-04-25T07:38:04.207Z,3.60
2019-04-25T07:40:34.040Z,3.57
2019-04-25T07:43:03.248Z,3.40
2019-04-25T07:45:34.679Z,3.07
2019-04-25T07:48:04.095Z,4.47
2019-04-25T07:50:34.001Z,3.83
2019-04-25T07:53:03.613Z,3.83
2019-04-25T07:55:33.488Z,3.37
2019-04-25T07:58:03.178Z,4.03
2019-04-25T08:00:31.597Z,3.50
2019-04-25T08:02:59.947Z,2.70
2019-04-25T08:05:29.500Z,3.63
2019-04-25T08:07:58.034Z,3.23
2019-04-25T08:10:27.872Z,3.23
2019-04-25T08:12:56.565Z,3.90
2019-04-25T08:15:33.851Z,2.73
2019-04-25T08:18:09.349Z,3.80
2019-04-25T08:20:37.695Z,2.77
2019-04-25T08:23:06.028Z,3.33
2019-04-25T08:25:37.701Z,2.73
2019-04-25T08:28:04.421Z,2.83
2019-04-25T08:30:35.193Z,3.73
2019-04-25T08:33:03.965Z,3.23
2019-04-25T08:35:34.184Z,2.40
2019-04-25T08:38:03.417Z,1.97
2019-04-25T08:40:35.822Z,2.63
2019-04-25T08:43:03.573Z,2.37
2019-04-25T08:45:33.096Z,2.77
2019-04-25T08:48:03.552Z,2.87
2019-04-25T08:50:47.821Z,2.10
2019-04-25T08:53:16.266Z,2.40
2019-04-25T08:55:56.852Z,2.73
2019-04-25T08:59:04.120Z,1.83
2019-04-25T09:01:39.403Z,2.33
2019-04-25T09:04:13.328Z,3.20
2019-04-25T09:06:42.298Z,2.80
2019-04-25T09:09:10.689Z,1.77
2019-04-25T09:11:40.053Z,2.23
2019-04-25T09:14:08.569Z,2.33
2019-04-25T09:16:37.836Z,2.43
2019-04-25T09:19:06.286Z,2.27
2019-04-25T09:21:36.507Z,2.53
2019-04-25T09:24:04.701Z,1.90
2019-04-25T09:26:35.036Z,2.27
2019-04-25T09:29:16.013Z,1.97
2019-04-25T09:31:36.254Z,2.77
2019-04-25T09:34:04.105Z,2.23
2019-04-25T09:36:33.611Z,2.20
2019-04-25T09:39:07.873Z,2.20
2019-04-25T09:41:36.212Z,2.13
2019-04-25T09:44:06.225Z,2.30
2019-04-25T09:46:36.427Z,2.60
2019-04-25T09:49:17.830Z,2.00
2019-04-25T09:51:50.195Z,2.50
2019-04-25T09:54:46.782Z,2.23
2019-04-25T09:57:33.583Z,2.27
2019-04-25T10:00:03.643Z,1.87
2019-04-25T10:02:32.171Z,2.50
2019-04-25T10:05:00.472Z,2.07
2019-04-25T10:07:29.005Z,2.90
2019-04-25T10:09:57.367Z,2.07
2019-04-25T10:12:25.750Z,1.50
2019-04-25T10:15:01.014Z,2.10
2019-04-25T10:17:29.396Z,2.00
2019-04-25T10:19:57.711Z,1.73
2019-04-25T10:22:26.058Z,1.90
2019-04-25T10:25:00.389Z,1.87
2019-04-25T10:27:24.468Z,1.73
2019-04-25T10:29:55.092Z,1.87
2019-04-25T10:32:23.742Z,2.07
2019-04-25T10:34:52.235Z,1.90
2019-04-25T10:37:20.553Z,1.60
2019-04-25T10:39:48.980Z,1.60
2019-04-25T10:42:17.297Z,2.00
2019-04-25T10:44:47.050Z,1.80
2019-04-25T10:47:15.871Z,1.90
2019-04-25T10:49:44.944Z,2.03
2019-04-25T10:52:15.641Z,2.03
2019-04-25T10:54:45.346Z,1.60
2019-04-25T10:57:14.131Z,2.43
2019-04-25T10:59:54.417Z,1.90
2019-04-25T11:02:15.126Z,1.50
2019-04-25T11:04:50.164Z,1.67
2019-04-25T11:07:18.501Z,2.20
2019-04-25T11:09:47.153Z,2.37
2019-04-25T11:12:16.921Z,1.90
2019-04-25T11:14:46.372Z,1.93
2019-04-25T11:17:15.521Z,1.33
2019-04-25T11:19:44.545Z,2.47
2019-04-25T11:22:13.480Z,1.90
2019-04-25T11:24:43.791Z,1.90
2019-04-25T11:27:13.508Z,1.83
2019-04-25T11:29:43.206Z,2.20
2019-04-25T11:32:13.588Z,1.70
2019-04-25T11:34:43.164Z,2.20
2019-04-25T11:37:12.303Z,2.40
2019-04-25T11:40:15.142Z,1.70
2019-04-25T11:42:45.907Z,2.13
2019-04-25T11:45:14.379Z,2.30
2019-04-25T11:47:45.826Z,1.87
2019-04-25T11:50:14.015Z,2.03
2019-04-25T11:52:43.707Z,2.07
2019-04-25T11:55:12.269Z,1.80
2019-04-25T11:57:40.610Z,1.97
2019-04-25T12:00:21.308Z,1.90
2019-04-25T12:02:39.044Z,2.33
2019-04-25T12:05:09.043Z,1.90
2019-04-25T12:07:37.350Z,2.53
2019-04-25T12:10:06.857Z,1.50
2019-04-25T12:12:37.179Z,1.80
2019-04-25T12:15:05.389Z,2.00
2019-04-25T12:17:35.177Z,2.53
2019-04-25T12:20:04.010Z,2.10
2019-04-25T12:22:32.319Z,2.50
2019-04-25T12:25:00.662Z,2.30
2019-04-25T12:27:28.989Z,1.73
2019-04-25T12:29:57.343Z,2.03
2019-04-25T12:32:25.710Z,1.90
2019-04-25T12:34:54.047Z,2.10
2019-04-25T12:37:23.543Z,2.27
2019-04-25T12:39:52.390Z,2.00
2019-04-25T12:42:20.702Z,2.27
2019-04-25T12:45:14.528Z,2.00
2019-04-25T12:47:45.310Z,1.93
2019-04-25T12:50:14.663Z,2.70
2019-04-25T12:52:43.349Z,1.33
2019-04-25T12:55:13.948Z,2.20
2019-04-25T12:57:42.451Z,1.80
2019-04-25T13:00:11.155Z,2.57
2019-04-25T13:02:39.467Z,2.20
2019-04-25T13:05:07.799Z,2.53
2019-04-25T13:07:36.114Z,2.40
2019-04-25T13:10:05.710Z,2.63
2019-04-25T13:12:34.214Z,2.27
2019-04-25T13:15:02.588Z,2.00
2019-04-25T13:17:30.926Z,2.03
2019-04-25T13:19:59.507Z,2.33
2019-04-25T13:22:28.047Z,2.23
2019-04-25T13:24:56.358Z,2.37
2019-04-25T13:27:36.350Z,2.13
2019-04-25T13:30:14.038Z,1.73
2019-04-25T13:33:00.385Z,1.70
2019-04-25T13:35:36.338Z,1.70
2019-04-25T13:38:04.764Z,1.90
2019-04-25T13:40:33.082Z,1.57
2019-04-25T13:43:01.398Z,1.37
2019-04-25T13:45:29.836Z,1.83
2019-04-25T13:47:58.150Z,2.20
2019-04-25T13:50:27.513Z,2.60
2019-04-25T13:52:56.139Z,1.90
2019-04-25T13:55:25.006Z,1.67
2019-04-25T13:57:54.796Z,1.60
2019-04-25T14:00:24.827Z,2.23
2019-04-25T14:02:54.418Z,1.90
2019-04-25T14:05:24.909Z,1.90
2019-04-25T14:07:54.035Z,1.83
2019-04-25T14:10:23.419Z,1.77
2019-04-25T14:12:53.628Z,1.93
2019-04-25T14:15:24.910Z,1.10
2019-04-25T14:18:15.601Z,1.30
2019-04-25T14:20:51.878Z,1.87
2019-04-25T14:23:20.626Z,1.40
2019-04-25T14:25:49.974Z,1.27
2019-04-25T14:28:18.475Z,1.10
2019-04-25T14:30:46.877Z,1.37
2019-04-25T14:33:15.194Z,1.00
2019-04-25T14:35:43.558Z,1.30
2019-04-25T14:38:11.866Z,1.20
2019-04-25T14:40:42.272Z,1.00
2019-04-25T14:43:10.338Z,1.60
2019-04-25T14:45:44.360Z,1.33
2019-04-25T14:48:08.965Z,1.00
2019-04-25T14:50:37.393Z,1.17
2019-04-25T14:53:05.701Z,0.80
2019-04-25T14:55:56.511Z,0.90
2019-04-25T14:58:26.163Z,1.20
2019-04-25T15:00:54.686Z,0.93
2019-04-25T15:03:23.126Z,1.07
2019-04-25T15:05:52.440Z,1.30
2019-04-25T15:08:20.910Z,0.80
2019-04-25T15:10:50.822Z,1.03
2019-04-25T15:13:19.252Z,0.90
2019-04-25T15:15:47.744Z,1.00
2019-04-25T15:18:16.140Z,1.20
2019-04-25T15:20:44.480Z,0.80
2019-04-25T15:23:12.866Z,0.83
2019-04-25T15:25:41.381Z,1.20
2019-04-25T15:28:09.697Z,1.13
2019-04-25T15:30:38.776Z,1.17
2019-04-25T15:33:07.235Z,1.20
2019-04-25T15:35:45.029Z,1.10
2019-04-25T15:38:18.167Z,1.60
2019-04-25T15:40:52.942Z,2.10
2019-04-25T15:43:27.658Z,2.20
2019-04-25T15:46:07.743Z,1.50
2019-04-25T15:48:36.212Z,1.30
2019-04-25T15:51:04.547Z,2.43
2019-04-25T15:53:32.966Z,2.00
2019-04-25T15:56:01.282Z,2.50
2019-04-25T15:58:29.863Z,1.37
2019-04-25T16:00:58.288Z,1.27
2019-04-25T16:03:27.138Z,1.10
2019-04-25T16:05:56.529Z,1.37
2019-04-25T16:08:24.893Z,1.13
2019-04-25T16:10:53.259Z,0.93
2019-04-25T16:13:21.666Z,1.90
2019-04-25T16:15:50.023Z,1.60
2019-04-25T16:18:18.506Z,1.23
2019-04-25T16:20:46.850Z,0.90
2019-04-25T16:23:15.222Z,1.30
2019-04-25T16:25:43.535Z,1.23
2019-04-25T16:28:12.010Z,1.00
2019-04-25T16:30:40.771Z,1.20
2019-04-25T16:33:09.253Z,1.03
2019-04-25T16:35:37.858Z,0.90
2019-04-25T16:38:07.171Z,1.20
2019-04-25T16:40:36.237Z,1.27
2019-04-25T16:43:07.158Z,0.93
2019-04-25T16:45:37.741Z,1.30
2019-04-25T16:48:06.167Z,0.90
2019-04-25T16:50:34.651Z,0.80
2019-04-25T16:53:02.996Z,1.07
2019-04-25T16:55:31.760Z,1.23
2019-04-25T16:58:00.205Z,1.23
2019-04-25T17:00:52.156Z,0.83
2019-04-25T17:03:21.882Z,1.80
2019-04-25T17:05:50.197Z,1.23
2019-04-25T17:08:18.688Z,1.30
2019-04-25T17:10:46.990Z,1.07
2019-04-25T17:13:15.656Z,1.27
2019-04-25T17:16:06.607Z,1.30
2019-04-25T17:18:44.494Z,1.23
2019-04-25T17:21:12.924Z,1.43
2019-04-25T17:23:41.221Z,1.90
2019-04-25T17:26:10.621Z,1.80
2019-04-25T17:28:41.194Z,1.60
2019-04-25T17:31:29.079Z,1.33
2019-04-25T17:34:22.226Z,2.00
2019-04-25T17:36:57.839Z,1.37
2019-04-25T17:39:39.994Z,1.40
2019-04-25T17:42:08.318Z,1.33
2019-04-25T17:44:36.634Z,1.77
2019-04-25T17:47:06.588Z,1.63
2019-04-25T17:49:35.241Z,2.03
2019-04-25T17:52:03.611Z,1.90
2019-04-25T17:54:32.759Z,2.90
2019-04-25T17:57:01.256Z,2.60
2019-04-25T17:59:30.073Z,2.07
2019-04-25T18:01:58.448Z,2.00
2019-04-25T18:04:26.773Z,2.30
2019-04-25T18:06:55.106Z,4.30
2019-04-25T18:09:23.691Z,2.83
2019-04-25T18:11:52.000Z,3.60
2019-04-25T18:14:20.334Z,3.47
2019-04-25T18:16:50.993Z,5.97
2019-04-25T18:19:44.806Z,8.03
2019-04-25T18:22:45.081Z,5.57
2019-04-25T18:25:31.537Z,13.47
2019-04-25T18:28:13.169Z,4.43
2019-04-25T18:30:41.981Z,3.07
2019-04-25T18:33:27.198Z,2.80
2019-04-25T18:35:58.851Z,2.63
2019-04-25T18:38:34.110Z,3.27
2019-04-25T18:41:16.313Z,3.77
2019-04-25T18:43:54.482Z,3.60
2019-04-25T18:46:27.198Z,3.47
2019-04-25T18:48:55.594Z,3.20
2019-04-25T18:51:23.975Z,3.27
2019-04-25T18:54:14.392Z,2.87
2019-04-25T18:56:52.565Z,2.43
2019-04-25T18:59:52.308Z,2.40
2019-04-25T19:02:33.194Z,1.87
2019-04-25T19:05:33.412Z,2.27
2019-04-25T19:08:02.028Z,2.20
2019-04-25T19:10:30.651Z,1.83
2019-04-25T19:13:11.843Z,2.27
2019-04-25T19:15:32.223Z,2.60
2019-04-25T19:18:00.723Z,2.07
2019-04-25T19:20:29.030Z,1.90
2019-04-25T19:22:57.855Z,2.70
2019-04-25T19:25:26.241Z,2.00
2019-04-25T19:28:00.506Z,1.93
2019-04-25T19:30:29.255Z,2.13
2019-04-25T19:33:01.738Z,1.97
2019-04-25T19:35:30.507Z,1.77
2019-04-25T19:38:00.761Z,1.73
2019-04-25T19:40:46.193Z,2.00
2019-04-25T19:43:38.023Z,2.17
2019-04-25T19:46:06.364Z,2.03
2019-04-25T19:48:34.948Z,2.13
2019-04-25T19:51:03.264Z,2.10
2019-04-25T19:53:31.594Z,1.90
2019-04-25T19:55:59.907Z,1.93
2019-04-25T19:58:28.238Z,2.23
2019-04-25T20:00:56.637Z,2.30
2019-04-25T20:03:34.110Z,2.50
2019-04-25T20:06:13.842Z,2.40
2019-04-25T20:09:01.343Z,2.40
2019-04-25T20:11:54.945Z,2.40
2019-04-25T20:14:23.462Z,2.73
2019-04-25T20:16:52.199Z,3.00
2019-04-25T20:19:20.668Z,2.50
2019-04-25T20:21:50.294Z,2.13
2019-04-25T20:24:18.715Z,2.00
2019-04-25T20:26:48.238Z,2.60
2019-04-25T20:29:16.822Z,2.77
2019-04-25T20:31:46.471Z,2.53
2019-04-25T20:34:15.044Z,2.40
2019-04-25T20:36:44.638Z,2.43
2019-04-25T20:39:13.721Z,2.20
2019-04-25T20:41:42.070Z,2.40
2019-04-25T20:44:10.362Z,2.70
2019-04-25T20:46:38.683Z,2.63
2019-04-25T20:49:07.030Z,2.00
2019-04-25T20:51:35.354Z,1.70
2019-04-25T20:54:03.670Z,2.50
2019-04-25T20:56:32.087Z,1.73
2019-04-25T20:59:00.378Z,1.93
2019-04-25T21:01:28.753Z,1.70
2019-04-25T21:03:57.137Z,1.63
2019-04-25T21:06:29.963Z,1.90
2019-04-25T21:08:58.279Z,1.50
2019-04-25T21:11:26.607Z,1.67
2019-04-25T21:14:13.350Z,1.80
2019-04-25T21:16:58.947Z,1.90
2019-04-25T21:19:30.006Z,1.60
2019-04-25T21:21:58.708Z,1.67
2019-04-25T21:24:27.118Z,1.30
2019-04-25T21:26:55.478Z,1.33
2019-04-25T21:29:23.871Z,1.40
2019-04-25T21:31:52.571Z,1.60
2019-04-25T21:34:26.852Z,1.30
2019-04-25T21:36:51.283Z,1.27
2019-04-25T21:39:26.988Z,1.13
2019-04-25T21:42:04.990Z,1.37
2019-04-25T21:44:33.737Z,1.40
2019-04-25T21:47:02.046Z,1.50
2019-04-25T21:49:31.434Z,1.87
2019-04-25T21:51:59.783Z,1.03
2019-04-25T21:54:28.242Z,1.30
2019-04-25T21:56:57.438Z,1.40
2019-04-25T21:59:26.205Z,1.80
2019-04-25T22:01:55.420Z,1.80
2019-04-25T22:04:24.720Z,1.43
2019-04-25T22:06:54.165Z,1.53
2019-04-25T22:09:23.257Z,1.30
2019-04-25T22:11:52.011Z,1.37
2019-04-25T22:14:21.088Z,1.53
2019-04-25T22:16:49.776Z,1.40
2019-04-25T22:19:18.446Z,1.97
2019-04-25T22:21:47.138Z,1.50
2019-04-25T22:24:15.915Z,1.60
2019-04-25T22:26:46.022Z,1.67
2019-04-25T22:29:14.404Z,1.93
2019-04-25T22:31:50.201Z,1.60
2019-04-25T22:34:30.464Z,1.73
2019-04-25T22:36:59.856Z,1.73
2019-04-25T22:39:28.402Z,2.10
2019-04-25T22:41:56.971Z,2.07
2019-04-25T22:44:25.786Z,1.77
2019-04-25T22:46:54.555Z,2.20
2019-04-25T22:49:22.858Z,1.70
2019-04-25T22:51:51.286Z,1.80
2019-04-25T22:54:19.977Z,1.60
2019-04-25T22:56:48.409Z,2.07
2019-04-25T22:59:17.234Z,1.90
2019-04-25T23:02:07.588Z,1.83
2019-04-25T23:05:05.423Z,1.73
2019-04-25T23:07:30.331Z,1.87
2019-04-25T23:09:59.098Z,2.20
2019-04-25T23:12:27.880Z,2.10
2019-04-25T23:14:56.200Z,1.90
2019-04-25T23:17:24.537Z,1.83
2019-04-25T23:19:53.466Z,1.70
2019-04-25T23:22:21.785Z,2.00
2019-04-25T23:24:56.066Z,2.47
2019-04-25T23:27:42.571Z,1.70
2019-04-25T23:30:13.018Z,1.50
2019-04-25T23:32:41.369Z,1.60
2019-04-25T23:35:23.492Z,1.73
2019-04-25T23:37:39.754Z,1.73
2019-04-25T23:40:08.105Z,1.83
2019-04-25T23:42:36.494Z,1.60
2019-04-25T23:45:05.587Z,1.77
2019-04-25T23:47:34.949Z,1.70
2019-04-25T23:50:03.725Z,2.17
2019-04-25T23:52:32.033Z,1.90
2019-04-25T23:55:00.362Z,2.23
2019-04-25T23:57:28.670Z,2.43
2019-04-25T23:59:56.990Z,2.10
